createdAt,value
2024-03-08T00:00:09.763Z,50.26
2024-03-08T00:01:09.707Z,51.08
2024-03-08T00:02:09.721Z,54.18
2024-03-08T00:03:09.733Z,54.71
2024-03-08T00:04:09.713Z,52.15
2024-03-08T00:05:09.726Z,51.83
2024-03-08T00:06:09.713Z,52.10
2024-03-08T00:07:09.708Z,52.27
2024-03-08T00:08:09.696Z,52.32
2024-03-08T00:09:09.742Z,52.16
2024-03-08T00:10:09.769Z,53.31
2024-03-08T00:11:09.769Z,50.90
2024-03-08T00:12:09.811Z,51.89
2024-03-08T00:13:09.728Z,54.12
2024-03-08T00:14:09.734Z,51.50
2024-03-08T00:15:09.793Z,51.11
2024-03-08T00:16:09.720Z,52.09
2024-03-08T00:17:09.733Z,50.83
2024-03-08T00:18:09.787Z,53.05
2024-03-08T00:19:09.734Z,51.58
2024-03-08T00:20:09.755Z,51.45
2024-03-08T00:21:09.812Z,51.87
2024-03-08T00:22:09.746Z,53.99
2024-03-08T00:23:09.738Z,50.15
2024-03-08T00:24:09.855Z,50.00
2024-03-08T00:25:09.916Z,52.17
2024-03-08T00:26:09.899Z,50.00
2024-03-08T00:27:15.025Z,52.83
2024-03-08T00:28:10.011Z,52.92
2024-03-08T00:29:10.010Z,52.98
2024-03-08T00:30:10.153Z,52.86
2024-03-08T00:31:10.024Z,52.18
2024-03-08T00:32:10.023Z,53.37
2024-03-08T00:33:10.092Z,50.52
2024-03-08T00:34:10.027Z,52.45
2024-03-08T00:35:10.235Z,53.35
2024-03-08T00:36:10.237Z,52.66
2024-03-08T00:37:10.318Z,54.43
2024-03-08T00:38:10.447Z,51.41
2024-03-08T00:39:10.610Z,50.10
2024-03-08T00:40:10.912Z,50.96
2024-03-08T00:41:10.778Z,54.08
2024-03-08T00:42:10.926Z,50.00
2024-03-08T00:43:10.992Z,50.89
2024-03-08T00:44:11.086Z,54.94
2024-03-08T00:45:11.362Z,53.50
2024-03-08T00:46:11.228Z,50.29
2024-03-08T00:47:11.286Z,52.18
2024-03-08T00:48:11.404Z,51.96
2024-03-08T00:49:11.341Z,52.67
2024-03-08T00:50:11.406Z,53.09
2024-03-08T00:51:11.455Z,53.14
2024-03-08T00:52:11.505Z,51.37
2024-03-08T00:53:11.534Z,50.73
2024-03-08T00:54:11.622Z,52.61
2024-03-08T00:55:11.720Z,51.41
2024-03-08T00:56:11.656Z,50.31
2024-03-08T00:57:11.943Z,51.28
2024-03-08T00:58:11.852Z,53.49
2024-03-08T00:59:11.949Z,50.00
2024-03-08T01:00:12.127Z,54.19
2024-03-08T01:01:12.173Z,54.95
2024-03-08T01:02:12.260Z,52.08
2024-03-08T01:03:12.408Z,54.44
2024-03-08T01:04:12.425Z,53.86
2024-03-08T01:05:12.531Z,53.17
2024-03-08T01:06:12.658Z,50.18
2024-03-08T01:07:12.728Z,51.85
2024-03-08T01:08:12.867Z,53.74
2024-03-08T01:09:12.980Z,52.95
2024-03-08T01:10:13.026Z,51.86
2024-03-08T01:11:13.159Z,51.77
2024-03-08T01:12:13.268Z,51.16
2024-03-08T01:13:13.346Z,53.06
2024-03-08T01:14:13.464Z,55.43
2024-03-08T01:15:13.621Z,52.31
2024-03-08T01:16:16.470Z,55.54
2024-03-08T01:17:13.705Z,54.84
2024-03-08T01:18:13.753Z,55.83
2024-03-08T01:19:13.741Z,53.28
2024-03-08T01:20:13.745Z,53.63
2024-03-08T01:21:13.761Z,54.28
2024-03-08T01:22:13.694Z,54.11
2024-03-08T01:23:13.701Z,52.92
2024-03-08T01:24:13.733Z,51.52
2024-03-08T01:25:13.739Z,51.74
2024-03-08T01:26:13.711Z,50.37
2024-03-08T01:27:13.795Z,53.72
2024-03-08T01:28:13.709Z,52.13
2024-03-08T01:29:13.719Z,53.29
2024-03-08T01:30:13.880Z,51.12
2024-03-08T01:31:13.727Z,53.88
2024-03-08T01:32:13.715Z,52.42
2024-03-08T01:33:13.793Z,51.31
2024-03-08T01:34:13.723Z,53.04
2024-03-08T01:35:13.765Z,53.38
2024-03-08T01:36:13.782Z,52.83
2024-03-08T01:37:13.760Z,55.72
2024-03-08T01:38:13.830Z,54.26
2024-03-08T01:39:13.836Z,52.73
2024-03-08T01:40:13.766Z,50.00
2024-03-08T01:41:13.778Z,54.13
2024-03-08T01:42:13.867Z,53.71
2024-03-08T01:43:13.781Z,53.35
2024-03-08T01:44:13.776Z,54.56
2024-03-08T01:45:13.797Z,53.58
2024-03-08T01:46:13.775Z,52.89
2024-03-08T01:47:13.793Z,52.77
2024-03-08T01:48:13.911Z,54.68
2024-03-08T01:49:13.776Z,53.09
2024-03-08T01:50:13.901Z,52.97
2024-03-08T01:51:14.014Z,50.94
2024-03-08T01:52:14.108Z,55.08
2024-03-08T01:53:14.203Z,52.89
2024-03-08T01:54:14.344Z,52.90
2024-03-08T01:55:14.396Z,51.76
2024-03-08T01:56:14.481Z,52.31
2024-03-08T01:57:14.665Z,53.64
2024-03-08T01:58:14.702Z,51.62
2024-03-08T01:59:14.817Z,53.91
2024-03-08T02:00:14.955Z,53.18
2024-03-08T02:01:15.026Z,52.19
2024-03-08T02:02:15.087Z,50.63
2024-03-08T02:03:15.249Z,55.07
2024-03-08T02:04:15.355Z,50.97
2024-03-08T02:05:15.498Z,51.92
2024-03-08T02:06:16.066Z,54.93
2024-03-08T02:07:15.763Z,53.86
2024-03-08T02:08:15.825Z,51.75
2024-03-08T02:09:15.966Z,50.00
2024-03-08T02:10:16.093Z,51.61
2024-03-08T02:11:16.231Z,53.45
2024-03-08T02:12:16.295Z,50.38
2024-03-08T02:13:16.319Z,52.41
2024-03-08T02:14:16.418Z,51.74
2024-03-08T02:15:16.560Z,50.69
2024-03-08T02:16:16.613Z,52.60
2024-03-08T02:17:16.733Z,52.50
2024-03-08T02:18:16.829Z,50.71
2024-03-08T02:19:16.975Z,50.83
2024-03-08T02:20:17.078Z,50.59
2024-03-08T02:21:17.285Z,51.25
2024-03-08T02:22:17.422Z,52.43
2024-03-08T02:23:17.482Z,53.44
2024-03-08T02:24:17.668Z,53.00
2024-03-08T02:25:17.660Z,54.66
2024-03-08T02:26:17.756Z,51.01
2024-03-08T02:27:17.980Z,52.76
2024-03-08T02:28:18.005Z,53.36
2024-03-08T02:29:18.117Z,52.84
2024-03-08T02:30:18.238Z,52.46
2024-03-08T02:31:18.286Z,51.64
2024-03-08T02:32:18.360Z,53.66
2024-03-08T02:33:18.544Z,52.42
2024-03-08T02:34:18.544Z,50.73
2024-03-08T02:35:18.664Z,51.45
2024-03-08T02:36:18.885Z,52.48
2024-03-08T02:37:18.860Z,52.06
2024-03-08T02:38:18.919Z,54.29
2024-03-08T02:39:19.024Z,54.22
2024-03-08T02:40:19.103Z,52.99
2024-03-08T02:41:19.207Z,54.18
2024-03-08T02:42:23.236Z,54.57
2024-03-08T02:43:19.356Z,55.60
2024-03-08T02:44:19.341Z,53.26
2024-03-08T02:45:19.357Z,52.01
2024-03-08T02:46:19.353Z,50.94
2024-03-08T02:47:19.366Z,51.89
2024-03-08T02:48:19.453Z,52.40
2024-03-08T02:49:19.361Z,51.33
2024-03-08T02:50:19.354Z,51.18
2024-03-08T02:51:19.371Z,53.35
2024-03-08T02:52:19.369Z,51.33
2024-03-08T02:53:19.384Z,51.86
2024-03-08T02:54:19.446Z,53.87
2024-03-08T02:55:19.388Z,53.23
2024-03-08T02:56:19.398Z,52.36
2024-03-08T02:57:19.415Z,53.46
2024-03-08T02:58:19.374Z,53.65
2024-03-08T02:59:19.373Z,55.79
2024-03-08T03:00:19.425Z,53.34
2024-03-08T03:01:19.415Z,53.86
2024-03-08T03:02:19.377Z,56.59
2024-03-08T03:03:19.422Z,53.88
2024-03-08T03:04:19.384Z,55.79
2024-03-08T03:05:19.388Z,55.77
2024-03-08T03:06:19.543Z,57.15
2024-03-08T03:07:19.384Z,53.98
2024-03-08T03:08:19.561Z,56.51
2024-03-08T03:09:19.419Z,54.74
2024-03-08T03:10:19.511Z,56.20
2024-03-08T03:11:19.703Z,55.75
2024-03-08T03:12:24.201Z,57.98
2024-03-08T03:13:19.745Z,58.01
2024-03-08T03:14:19.741Z,57.59
2024-03-08T03:15:19.856Z,57.82
2024-03-08T03:16:19.738Z,58.16
2024-03-08T03:17:29.222Z,56.84
2024-03-08T03:18:19.842Z,58.13
2024-03-08T03:19:19.765Z,58.81
2024-03-08T03:20:19.742Z,58.56
2024-03-08T03:21:19.863Z,59.88
2024-03-08T03:22:19.750Z,60.46
2024-03-08T03:23:19.754Z,58.30
2024-03-08T03:24:19.748Z,60.39
2024-03-08T03:25:19.752Z,58.34
2024-03-08T03:26:19.747Z,58.69
2024-03-08T03:27:19.806Z,58.64
2024-03-08T03:28:19.825Z,58.51
2024-03-08T03:29:19.770Z,58.36
2024-03-08T03:30:19.752Z,57.81
2024-03-08T03:31:19.763Z,57.67
2024-03-08T03:32:19.765Z,57.78
2024-03-08T03:33:19.796Z,57.60
2024-03-08T03:34:19.795Z,55.46
2024-03-08T03:35:19.808Z,57.66
2024-03-08T03:36:19.818Z,54.73
2024-03-08T03:37:19.804Z,56.94
2024-03-08T03:38:19.793Z,56.17
2024-03-08T03:39:19.833Z,57.34
2024-03-08T03:40:19.805Z,56.40
2024-03-08T03:41:19.814Z,57.59
2024-03-08T03:42:40.811Z,57.43
2024-03-08T03:43:19.833Z,57.71
2024-03-08T03:44:19.827Z,59.08
2024-03-08T03:45:19.835Z,59.75
2024-03-08T03:46:19.811Z,61.52
2024-03-08T03:47:19.852Z,61.16
2024-03-08T03:48:19.907Z,60.60
2024-03-08T03:49:19.858Z,61.09
2024-03-08T03:50:19.871Z,61.03
2024-03-08T03:51:19.893Z,58.57
2024-03-08T03:52:19.853Z,60.02
2024-03-08T03:53:19.890Z,59.57
2024-03-08T03:54:19.856Z,58.24
2024-03-08T03:55:19.848Z,56.97
2024-03-08T03:56:19.864Z,57.13
2024-03-08T03:57:19.860Z,57.87
2024-03-08T03:58:19.859Z,57.86
2024-03-08T03:59:19.868Z,56.80
2024-03-08T04:00:19.994Z,58.08
2024-03-08T04:01:19.902Z,56.40
2024-03-08T04:02:19.852Z,56.34
2024-03-08T04:03:19.899Z,57.47
2024-03-08T04:04:19.866Z,58.87
2024-03-08T04:05:19.870Z,55.44
2024-03-08T04:06:19.917Z,56.48
2024-03-08T04:07:19.884Z,56.98
2024-03-08T04:08:19.863Z,58.61
2024-03-08T04:09:19.875Z,55.06
2024-03-08T04:10:19.869Z,55.46
2024-03-08T04:11:19.914Z,55.25
2024-03-08T04:12:24.278Z,57.47
2024-03-08T04:13:19.873Z,57.47
2024-03-08T04:14:19.881Z,57.16
2024-03-08T04:15:19.920Z,56.70
2024-03-08T04:16:19.877Z,56.23
2024-03-08T04:17:19.908Z,55.68
2024-03-08T04:18:19.998Z,55.15
2024-03-08T04:19:19.870Z,55.50
2024-03-08T04:20:19.876Z,55.08
2024-03-08T04:21:19.907Z,54.24
2024-03-08T04:22:19.882Z,52.79
2024-03-08T04:23:19.897Z,55.49
2024-03-08T04:24:19.896Z,55.30
2024-03-08T04:25:19.876Z,54.75
2024-03-08T04:26:20.111Z,55.16
2024-03-08T04:27:19.945Z,53.55
2024-03-08T04:28:19.923Z,54.64
2024-03-08T04:29:19.931Z,54.59
2024-03-08T04:30:19.962Z,54.87
2024-03-08T04:31:19.950Z,54.33
2024-03-08T04:32:19.975Z,53.61
2024-03-08T04:33:20.036Z,53.90
2024-03-08T04:34:19.962Z,54.66
2024-03-08T04:35:19.937Z,56.31
2024-03-08T04:36:19.967Z,55.99
2024-03-08T04:37:27.660Z,50.00
2024-03-08T04:38:27.659Z,50.00
2024-03-08T04:39:27.681Z,50.00
2024-03-08T04:40:27.660Z,50.00
2024-03-08T04:41:27.663Z,50.00
2024-03-08T04:42:27.666Z,51.78
2024-03-08T04:43:27.668Z,50.78
2024-03-08T04:44:27.649Z,52.97
2024-03-08T04:45:27.663Z,51.12
2024-03-08T04:46:27.661Z,54.23
2024-03-08T04:47:27.710Z,54.36
2024-03-08T04:48:27.741Z,52.85
2024-03-08T04:49:27.676Z,53.07
2024-03-08T04:50:27.713Z,53.06
2024-03-08T04:51:27.781Z,51.60
2024-03-08T04:52:32.848Z,53.16
2024-03-08T04:53:27.846Z,53.16
2024-03-08T04:54:27.843Z,51.90
2024-03-08T04:55:27.861Z,52.29
2024-03-08T04:56:27.834Z,52.58
2024-03-08T04:57:27.889Z,52.99
2024-03-08T04:58:27.843Z,50.12
2024-03-08T04:59:27.849Z,51.93
2024-03-08T05:00:27.881Z,52.57
2024-03-08T05:01:27.863Z,50.00
2024-03-08T05:02:27.953Z,52.60
2024-03-08T05:03:28.032Z,52.04
2024-03-08T05:04:28.094Z,52.04
2024-03-08T05:05:28.169Z,53.72
2024-03-08T05:06:28.237Z,51.52
2024-03-08T05:07:28.322Z,52.59
2024-03-08T05:08:28.393Z,52.91
2024-03-08T05:09:28.460Z,50.00
2024-03-08T05:10:28.531Z,53.33
2024-03-08T05:11:28.668Z,54.15
2024-03-08T05:12:28.687Z,53.89
2024-03-08T05:13:28.759Z,52.99
2024-03-08T05:14:28.932Z,54.39
2024-03-08T05:15:33.216Z,52.82
2024-03-08T05:16:28.886Z,52.86
2024-03-08T05:17:28.994Z,52.96
2024-03-08T05:18:28.944Z,51.96
2024-03-08T05:19:30.967Z,52.84
2024-03-08T05:20:28.915Z,52.89
2024-03-08T05:21:28.919Z,53.00
2024-03-08T05:22:28.896Z,52.96
2024-03-08T05:23:28.960Z,51.76
2024-03-08T05:24:28.904Z,52.97
2024-03-08T05:25:28.899Z,51.96
2024-03-08T05:26:28.970Z,50.03
2024-03-08T05:27:28.928Z,50.20
2024-03-08T05:28:28.897Z,50.24
2024-03-08T05:29:28.969Z,51.41
2024-03-08T05:30:28.906Z,52.96
2024-03-08T05:31:28.910Z,52.57
2024-03-08T05:32:31.579Z,52.71
2024-03-08T05:33:29.064Z,52.80
2024-03-08T05:34:28.908Z,52.73
2024-03-08T05:35:28.987Z,52.88
2024-03-08T05:36:28.984Z,51.23
2024-03-08T05:37:28.976Z,49.82
2024-03-08T05:38:28.974Z,52.49
2024-03-08T05:39:28.989Z,53.57
2024-03-08T05:40:28.940Z,52.83
2024-03-08T05:41:28.972Z,51.50
2024-03-08T05:42:28.955Z,52.86
2024-03-08T05:43:28.934Z,51.19
2024-03-08T05:44:28.972Z,52.42
2024-03-08T05:45:28.937Z,53.30
2024-03-08T05:46:28.951Z,51.56
2024-03-08T05:47:31.588Z,51.21
2024-03-08T05:48:29.016Z,51.29
2024-03-08T05:49:28.932Z,51.46
2024-03-08T05:50:29.057Z,52.08
2024-03-08T05:51:28.966Z,51.30
2024-03-08T05:52:28.964Z,53.62
2024-03-08T05:53:28.988Z,52.03
2024-03-08T05:54:29.029Z,51.68
2024-03-08T05:55:28.944Z,52.64
2024-03-08T05:56:28.976Z,51.17
2024-03-08T05:57:28.953Z,51.72
2024-03-08T05:58:28.961Z,51.77
2024-03-08T05:59:28.962Z,54.26
2024-03-08T06:00:29.013Z,53.26
2024-03-08T06:01:28.978Z,52.97
2024-03-08T06:02:28.977Z,52.03
2024-03-08T06:03:28.955Z,51.40
2024-03-08T06:04:28.974Z,50.92
2024-03-08T06:05:28.986Z,51.87
2024-03-08T06:06:28.983Z,53.46
2024-03-08T06:07:28.947Z,53.86
2024-03-08T06:08:29.026Z,52.61
2024-03-08T06:09:28.961Z,53.01
2024-03-08T06:10:28.982Z,53.62
2024-03-08T06:11:29.080Z,51.56
2024-03-08T06:12:28.998Z,53.01
2024-03-08T06:13:30.749Z,54.06
2024-03-08T06:14:28.980Z,52.08
2024-03-08T06:15:29.040Z,52.80
2024-03-08T06:16:28.989Z,52.49
2024-03-08T06:17:29.004Z,51.01
2024-03-08T06:18:29.085Z,53.09
2024-03-08T06:19:29.015Z,53.27
2024-03-08T06:20:28.980Z,52.96
2024-03-08T06:21:29.088Z,53.07
2024-03-08T06:22:28.985Z,53.38
2024-03-08T06:23:28.999Z,53.43
2024-03-08T06:24:28.999Z,52.69
2024-03-08T06:25:28.971Z,52.08
2024-03-08T06:26:30.596Z,52.68
2024-03-08T06:27:29.039Z,50.85
2024-03-08T06:28:29.068Z,51.72
2024-03-08T06:29:29.105Z,52.81
2024-03-08T06:30:29.150Z,51.81
2024-03-08T06:31:29.248Z,51.88
2024-03-08T06:32:29.448Z,52.76
2024-03-08T06:33:29.539Z,54.57
2024-03-08T06:34:29.505Z,53.68
2024-03-08T06:35:29.646Z,53.04
2024-03-08T06:36:29.657Z,59.85
2024-03-08T06:37:29.736Z,58.77
2024-03-08T06:38:29.946Z,60.04
2024-03-08T06:39:29.937Z,59.42
2024-03-08T06:40:30.033Z,60.82
2024-03-08T06:41:30.183Z,62.45
2024-03-08T06:42:30.162Z,62.85
2024-03-08T06:43:30.219Z,64.45
2024-03-08T06:44:30.335Z,65.12
2024-03-08T06:45:30.390Z,64.62
2024-03-08T06:46:30.447Z,64.07
2024-03-08T06:47:30.601Z,66.42
2024-03-08T06:48:30.809Z,67.28
2024-03-08T06:49:30.835Z,66.95
2024-03-08T06:50:30.946Z,70.25
2024-03-08T06:51:30.959Z,71.05
2024-03-08T06:52:31.025Z,74.68
2024-03-08T06:53:31.111Z,75.23
2024-03-08T06:54:31.175Z,77.39
2024-03-08T06:55:31.223Z,79.19
2024-03-08T06:56:31.342Z,79.75
2024-03-08T06:57:31.422Z,86.64
2024-03-08T06:58:31.493Z,88.63
2024-03-08T06:59:31.535Z,92.62
2024-03-08T07:00:31.641Z,97.04
2024-03-08T07:01:31.752Z,100.95
2024-03-08T07:02:31.806Z,100.57
2024-03-08T07:03:31.854Z,104.25
2024-03-08T07:04:31.927Z,105.81
2024-03-08T07:05:32.466Z,108.56
2024-03-08T07:06:32.065Z,109.06
2024-03-08T07:07:32.049Z,107.07
2024-03-08T07:08:32.195Z,108.29
2024-03-08T07:09:32.849Z,110.68
2024-03-08T07:10:32.169Z,114.19
2024-03-08T07:11:32.298Z,111.99
2024-03-08T07:12:32.290Z,110.22
2024-03-08T07:13:32.322Z,109.74
2024-03-08T07:14:32.352Z,113.43
2024-03-08T07:15:32.343Z,115.51
2024-03-08T07:16:32.406Z,113.70
2024-03-08T07:17:32.458Z,115.48
2024-03-08T07:18:32.528Z,115.47
2024-03-08T07:19:32.474Z,114.69
2024-03-08T07:20:32.588Z,114.76
2024-03-08T07:21:32.610Z,112.81
2024-03-08T07:22:32.626Z,113.73
2024-03-08T07:23:32.883Z,114.21
2024-03-08T07:24:32.843Z,113.08
2024-03-08T07:25:32.918Z,113.84
2024-03-08T07:26:33.074Z,114.82
2024-03-08T07:27:33.054Z,113.29
2024-03-08T07:28:33.157Z,112.88
2024-03-08T07:29:33.226Z,112.81
2024-03-08T07:30:33.387Z,113.50
2024-03-08T07:31:33.355Z,114.50
2024-03-08T07:32:33.469Z,115.52
2024-03-08T07:33:33.570Z,113.00
2024-03-08T07:34:33.590Z,110.62
2024-03-08T07:35:33.704Z,112.26
2024-03-08T07:36:33.747Z,110.26
2024-03-08T07:37:33.813Z,111.92
2024-03-08T07:38:33.959Z,112.77
2024-03-08T07:39:33.987Z,112.41
2024-03-08T07:40:34.058Z,111.98
2024-03-08T07:41:34.156Z,113.32
2024-03-08T07:42:34.213Z,110.40
2024-03-08T07:43:34.476Z,112.41
2024-03-08T07:44:34.389Z,110.61
2024-03-08T07:45:34.404Z,112.48
2024-03-08T07:46:34.498Z,113.05
2024-03-08T07:47:34.573Z,111.21
2024-03-08T07:48:34.729Z,110.70
2024-03-08T07:49:34.719Z,112.49
2024-03-08T07:50:34.837Z,111.39
2024-03-08T07:51:34.913Z,108.44
2024-03-08T07:52:34.973Z,110.56
2024-03-08T07:53:35.091Z,117.46
2024-03-08T07:54:35.205Z,113.70
2024-03-08T07:55:35.195Z,110.52
2024-03-08T07:56:36.058Z,110.67
2024-03-08T07:57:35.322Z,109.24
2024-03-08T07:58:35.853Z,108.20
2024-03-08T07:59:35.371Z,107.96
2024-03-08T08:00:35.423Z,108.95
2024-03-08T08:01:35.577Z,106.79
2024-03-08T08:02:37.850Z,110.87
2024-03-08T08:03:35.491Z,114.35
2024-03-08T08:04:35.544Z,116.17
2024-03-08T08:05:35.493Z,115.02
2024-03-08T08:06:35.540Z,119.04
2024-03-08T08:07:35.537Z,122.52
2024-03-08T08:08:35.512Z,122.95
2024-03-08T08:09:35.910Z,128.28
2024-03-08T08:10:35.567Z,130.51
2024-03-08T08:11:35.512Z,133.60
2024-03-08T08:12:35.519Z,133.69
2024-03-08T08:13:35.524Z,137.43
2024-03-08T08:14:35.491Z,139.23
2024-03-08T08:15:35.790Z,140.49
2024-03-08T08:16:35.509Z,145.78
2024-03-08T08:17:35.615Z,158.40
2024-03-08T08:18:35.527Z,161.19
2024-03-08T08:19:35.583Z,156.46
2024-03-08T08:20:35.708Z,143.04
2024-03-08T08:21:35.568Z,132.95
2024-03-08T08:22:35.573Z,127.87
2024-03-08T08:23:35.554Z,121.12
2024-03-08T08:24:35.554Z,116.89
2024-03-08T08:25:35.749Z,117.15
2024-03-08T08:26:38.043Z,116.32
2024-03-08T08:27:35.617Z,115.79
2024-03-08T08:28:35.632Z,115.80
2024-03-08T08:29:35.586Z,116.33
2024-03-08T08:30:35.561Z,117.42
2024-03-08T08:31:35.598Z,117.98
2024-03-08T08:32:35.589Z,116.50
2024-03-08T08:33:35.580Z,117.76
2024-03-08T08:34:35.618Z,120.14
2024-03-08T08:35:35.587Z,118.56
2024-03-08T08:36:35.560Z,122.07
2024-03-08T08:37:35.613Z,123.37
2024-03-08T08:38:35.577Z,124.65
2024-03-08T08:39:35.582Z,128.48
2024-03-08T08:40:35.613Z,130.85
2024-03-08T08:41:35.584Z,133.11
2024-03-08T08:42:35.574Z,135.21
2024-03-08T08:43:37.270Z,138.13
2024-03-08T08:44:35.620Z,139.05
2024-03-08T08:45:35.611Z,140.78
2024-03-08T08:46:38.192Z,144.35
2024-03-08T08:47:35.660Z,144.43
2024-03-08T08:48:35.601Z,144.91
2024-03-08T08:49:35.641Z,146.06
2024-03-08T08:50:35.597Z,150.38
2024-03-08T08:51:36.790Z,155.94
2024-03-08T08:52:36.225Z,160.10
2024-03-08T08:53:35.620Z,160.47
2024-03-08T08:54:35.612Z,161.46
2024-03-08T08:55:35.661Z,159.76
2024-03-08T08:56:35.601Z,164.46
2024-03-08T08:57:35.612Z,162.57
2024-03-08T08:58:35.634Z,162.72
2024-03-08T08:59:35.629Z,155.28
2024-03-08T09:00:35.644Z,156.95
2024-03-08T09:01:35.700Z,151.50
2024-03-08T09:02:35.686Z,145.35
2024-03-08T09:03:35.656Z,143.02
2024-03-08T09:04:35.648Z,137.18
2024-03-08T09:05:38.950Z,137.05
2024-03-08T09:06:35.633Z,135.52
2024-03-08T09:07:35.668Z,133.61
2024-03-08T09:08:35.638Z,131.12
2024-03-08T09:09:35.674Z,129.52
2024-03-08T09:10:35.692Z,126.86
2024-03-08T09:11:35.771Z,126.67
2024-03-08T09:12:43.411Z,50.00
2024-03-08T09:13:43.384Z,50.00
2024-03-08T09:14:43.414Z,50.00
2024-03-08T09:15:43.375Z,50.00
2024-03-08T09:16:43.476Z,50.00
2024-03-08T09:17:43.534Z,51.14
2024-03-08T09:18:43.447Z,50.31
2024-03-08T09:19:43.449Z,48.65
2024-03-08T09:20:43.443Z,51.63
2024-03-08T09:21:43.556Z,49.34
2024-03-08T09:22:43.736Z,53.18
2024-03-08T09:23:43.803Z,51.43
2024-03-08T09:24:43.887Z,52.40
2024-03-08T09:25:46.783Z,50.00
2024-03-08T09:26:44.000Z,51.45
2024-03-08T09:27:44.067Z,50.00
2024-03-08T09:28:44.015Z,50.23
2024-03-08T09:29:43.986Z,51.83
2024-03-08T09:30:48.618Z,51.81
2024-03-08T09:31:45.072Z,51.86
2024-03-08T09:32:44.014Z,51.79
2024-03-08T09:33:44.008Z,50.79
2024-03-08T09:34:44.048Z,48.10
2024-03-08T09:35:44.015Z,48.16
2024-03-08T09:36:44.072Z,50.39
2024-03-08T09:37:44.177Z,50.81
2024-03-08T09:38:44.485Z,53.12
2024-03-08T09:39:44.054Z,51.96
2024-03-08T09:40:44.123Z,52.11
2024-03-08T09:41:44.083Z,53.77
2024-03-08T09:42:44.082Z,53.69
2024-03-08T09:43:44.109Z,55.54
2024-03-08T09:44:44.052Z,57.79
2024-03-08T09:45:44.054Z,52.35
2024-03-08T09:46:44.119Z,59.50
2024-03-08T09:47:44.136Z,66.51
2024-03-08T09:48:44.163Z,65.31
2024-03-08T09:49:44.236Z,59.23
2024-03-08T09:50:44.224Z,51.67
2024-03-08T09:51:44.260Z,49.83
2024-03-08T09:52:44.424Z,49.63
2024-03-08T09:53:44.458Z,50.22
2024-03-08T09:54:44.550Z,49.78
2024-03-08T09:55:44.716Z,50.24
2024-03-08T09:56:44.742Z,50.30
2024-03-08T09:57:44.860Z,50.68
2024-03-08T09:58:44.980Z,50.00
2024-03-08T09:59:45.037Z,49.95
2024-03-08T10:00:45.104Z,51.27
2024-03-08T10:01:45.206Z,51.16
2024-03-08T10:02:45.297Z,56.05
2024-03-08T10:03:45.381Z,56.21
2024-03-08T10:04:45.536Z,60.34
2024-03-08T10:05:45.631Z,62.20
2024-03-08T10:06:45.718Z,62.96
2024-03-08T10:07:45.715Z,65.17
2024-03-08T10:08:46.382Z,66.08
2024-03-08T10:09:45.855Z,66.80
2024-03-08T10:10:46.022Z,67.74
2024-03-08T10:11:46.065Z,69.29
2024-03-08T10:12:46.104Z,70.42
2024-03-08T10:13:46.235Z,71.62
2024-03-08T10:14:46.296Z,72.23
2024-03-08T10:15:46.372Z,73.18
2024-03-08T10:16:46.522Z,75.47
2024-03-08T10:17:46.577Z,77.09
2024-03-08T10:18:46.676Z,76.85
2024-03-08T10:19:46.801Z,80.07
2024-03-08T10:20:46.885Z,81.11
2024-03-08T10:21:46.990Z,83.10
2024-03-08T10:22:58.139Z,81.71
2024-03-08T10:23:48.101Z,81.80
2024-03-08T10:24:47.134Z,82.15
2024-03-08T10:25:47.140Z,83.54
2024-03-08T10:26:47.132Z,85.35
2024-03-08T10:27:47.149Z,88.07
2024-03-08T10:28:47.224Z,88.04
2024-03-08T10:29:47.158Z,86.19
2024-03-08T10:30:47.171Z,89.96
2024-03-08T10:31:47.233Z,91.23
2024-03-08T10:32:47.288Z,90.98
2024-03-08T10:33:47.364Z,91.71
2024-03-08T10:34:47.443Z,94.65
2024-03-08T10:35:47.490Z,97.62
2024-03-08T10:36:47.596Z,99.89
2024-03-08T10:37:47.706Z,103.73
2024-03-08T10:38:47.770Z,106.54
2024-03-08T10:39:47.834Z,108.79
2024-03-08T10:40:47.969Z,108.47
2024-03-08T10:41:48.008Z,109.96
2024-03-08T10:42:48.081Z,114.39
2024-03-08T10:43:48.207Z,117.87
2024-03-08T10:44:48.239Z,120.50
2024-03-08T10:45:48.347Z,120.07
2024-03-08T10:46:48.546Z,121.88
2024-03-08T10:47:48.624Z,122.47
2024-03-08T10:48:48.608Z,120.39
2024-03-08T10:49:48.773Z,119.41
2024-03-08T10:50:48.832Z,116.54
2024-03-08T10:51:48.941Z,112.21
2024-03-08T10:52:49.090Z,110.41
2024-03-08T10:53:49.193Z,110.68
2024-03-08T10:54:49.277Z,108.12
2024-03-08T10:55:49.383Z,105.68
2024-03-08T10:56:49.492Z,108.90
2024-03-08T10:57:49.652Z,107.97
2024-03-08T10:58:49.784Z,108.52
2024-03-08T10:59:49.807Z,108.61
2024-03-08T11:00:49.901Z,108.46
2024-03-08T11:01:50.084Z,111.25
2024-03-08T11:02:50.069Z,113.28
2024-03-08T11:03:50.399Z,112.25
2024-03-08T11:04:50.380Z,112.52
2024-03-08T11:05:50.331Z,114.94
2024-03-08T11:06:50.410Z,116.24
2024-03-08T11:07:50.510Z,115.78
2024-03-08T11:08:50.586Z,115.87
2024-03-08T11:09:50.652Z,117.86
2024-03-08T11:10:50.765Z,119.62
2024-03-08T11:11:50.878Z,121.10
2024-03-08T11:12:50.890Z,121.22
2024-03-08T11:13:50.989Z,122.03
2024-03-08T11:14:51.297Z,124.07
2024-03-08T11:15:51.167Z,123.87
2024-03-08T11:16:51.300Z,127.45
2024-03-08T11:17:51.349Z,126.97
2024-03-08T11:18:51.411Z,128.64
2024-03-08T11:19:51.510Z,129.34
2024-03-08T11:20:51.565Z,127.79
2024-03-08T11:21:51.631Z,129.13
2024-03-08T11:22:51.840Z,133.16
2024-03-08T11:23:51.781Z,135.07
2024-03-08T11:24:51.908Z,135.79
2024-03-08T11:25:51.970Z,138.06
2024-03-08T11:26:52.035Z,140.34
2024-03-08T11:27:52.112Z,139.60
2024-03-08T11:28:52.283Z,142.07
2024-03-08T11:29:52.295Z,143.84
2024-03-08T11:30:52.370Z,143.16
2024-03-08T11:31:52.516Z,146.15
2024-03-08T11:32:52.601Z,147.53
2024-03-08T11:33:52.617Z,147.40
2024-03-08T11:34:52.825Z,152.39
2024-03-08T11:35:52.762Z,148.89
2024-03-08T11:36:52.826Z,150.78
2024-03-08T11:37:52.981Z,151.90
2024-03-08T11:38:53.058Z,154.36
2024-03-08T11:39:53.100Z,152.72
2024-03-08T11:40:53.200Z,156.77
2024-03-08T11:41:53.247Z,150.33
2024-03-08T11:42:53.324Z,148.54
2024-03-08T11:43:53.428Z,146.47
2024-03-08T11:44:53.515Z,142.29
2024-03-08T11:45:53.571Z,137.73
2024-03-08T11:46:53.772Z,134.34
2024-03-08T11:47:56.401Z,131.67
2024-03-08T11:48:53.763Z,131.72
2024-03-08T11:49:53.799Z,129.45
2024-03-08T11:50:53.741Z,132.13
2024-03-08T11:51:53.768Z,132.79
2024-03-08T11:52:53.791Z,132.74
2024-03-08T11:53:53.735Z,133.50
2024-03-08T11:54:53.796Z,131.38
2024-03-08T11:55:53.816Z,134.20
2024-03-08T11:56:53.763Z,134.37
2024-03-08T11:57:53.751Z,132.96
2024-03-08T11:58:53.830Z,133.98
2024-03-08T11:59:57.111Z,135.59
2024-03-08T12:00:53.765Z,134.50
2024-03-08T12:01:53.950Z,135.73
2024-03-08T12:02:53.788Z,137.01
2024-03-08T12:03:53.768Z,138.50
2024-03-08T12:04:53.898Z,146.75
2024-03-08T12:05:57.223Z,148.40
2024-03-08T12:06:53.773Z,148.60
2024-03-08T12:07:53.850Z,149.05
2024-03-08T12:08:53.765Z,150.47
2024-03-08T12:09:53.783Z,150.20
2024-03-08T12:10:53.814Z,150.80
2024-03-08T12:11:53.828Z,153.10
2024-03-08T12:12:53.793Z,154.75
2024-03-08T12:13:53.845Z,149.30
2024-03-08T12:14:53.800Z,153.64
2024-03-08T12:15:53.769Z,150.90
2024-03-08T12:16:53.930Z,153.31
2024-03-08T12:17:54.899Z,156.89
2024-03-08T12:18:53.781Z,158.66
2024-03-08T12:19:53.819Z,159.21
2024-03-08T12:20:53.794Z,164.36
2024-03-08T12:21:53.778Z,165.83
2024-03-08T12:22:53.860Z,167.77
2024-03-08T12:23:56.698Z,168.06
2024-03-08T12:24:53.818Z,168.30
2024-03-08T12:25:53.832Z,169.24
2024-03-08T12:26:53.813Z,171.62
2024-03-08T12:27:53.840Z,173.60
2024-03-08T12:28:53.846Z,176.55
2024-03-08T12:29:53.799Z,174.23
2024-03-08T12:30:53.825Z,173.73
2024-03-08T12:31:53.868Z,169.62
2024-03-08T12:32:53.862Z,165.46
2024-03-08T12:33:56.353Z,158.09
2024-03-08T12:34:53.920Z,153.94
2024-03-08T12:35:53.897Z,150.51
2024-03-08T12:36:53.842Z,142.39
2024-03-08T12:37:53.890Z,139.48
2024-03-08T12:38:53.820Z,135.22
2024-03-08T12:39:53.818Z,134.74
2024-03-08T12:40:53.861Z,131.45
2024-03-08T12:41:53.844Z,129.98
2024-03-08T12:42:53.817Z,130.73
2024-03-08T12:43:53.839Z,130.44
2024-03-08T12:44:53.838Z,131.00